Time;durP1;ratioP1;P1;durP2;ratioP2;P2;SDS_P1;SDS_P2;PMS_P1;PMS_P2;Temp;Humidity;BMP_temperature;BMP_pressure;BME280_temperature;BME280_humidity;BME280_pressure;Samples;Min_cycle;Max_cycle;Signal;HPM_P1;HPM_P2
2021/05/29 00:02:14;;;;;;;5.85;5.30;;;;;;;23.28;49.87;98941.44;1714455;82;21123;-37
2021/05/29 00:04:40;;;;;;;7.30;5.42;;;;;;;23.26;49.91;98935.38;1694948;82;21591;-37
2021/05/29 00:07:07;;;;;;;11.20;4.85;;;;;;;23.27;49.93;98936.25;1701850;82;21067;-36
2021/05/29 00:09:34;;;;;;;6.90;5.15;;;;;;;23.27;49.91;98936.25;1702286;82;21089;-37
2021/05/29 00:12:04;;;;;;;6.42;4.75;;;;;;;23.26;49.95;98938.06;1696580;82;21166;-37
2021/05/29 00:14:34;;;;;;;5.28;4.78;;;;;;;23.24;49.97;98939.23;1701389;84;21063;-37
2021/05/29 00:17:04;;;;;;;6.80;4.85;;;;;;;23.23;50.04;98927.63;1701123;82;21498;-37
2021/05/29 00:19:30;;;;;;;8.53;5.42;;;;;;;23.24;49.92;98928.49;1705032;82;21051;-38
2021/05/29 00:21:57;;;;;;;5.67;5.03;;;;;;;23.25;49.82;98919.42;1682854;82;21068;-37
2021/05/29 00:24:24;;;;;;;7.40;5.00;;;;;;;23.26;49.86;98917.94;1692695;82;20992;-37
2021/05/29 00:26:50;;;;;;;6.87;5.17;;;;;;;23.29;49.85;98916.81;1686665;82;21085;-37
2021/05/29 00:32:01;;;;;;;7.67;4.80;;;;;;;23.32;49.76;98913.83;1680919;82;21054;-37
2021/05/29 00:34:27;;;;;;;7.75;4.37;;;;;;;23.31;49.71;98908.94;1729219;81;22273;-37
2021/05/29 00:36:54;;;;;;;7.58;4.80;;;;;;;23.31;49.70;98906.25;1699503;82;21540;-37
2021/05/29 00:39:20;;;;;;;7.42;4.20;;;;;;;23.32;49.61;98909.30;1694155;82;21058;-37
2021/05/29 00:41:47;;;;;;;6.30;4.50;;;;;;;23.33;49.62;98905.63;1690125;82;21029;-37
2021/05/29 00:44:14;;;;;;;5.58;3.95;;;;;;;23.31;49.69;98908.94;1686501;84;21144;-38
2021/05/29 00:46:41;;;;;;;4.55;3.87;;;;;;;23.29;49.72;98906.08;1686044;82;21043;-38
2021/05/29 00:49:07;;;;;;;6.35;4.45;;;;;;;23.26;49.80;98903.18;1701863;82;22072;-37
2021/05/29 00:51:36;;;;;;;5.60;4.25;;;;;;;23.24;49.75;98904.34;1670472;84;21493;-37
2021/05/29 00:54:04;;;;;;;5.53;4.00;;;;;;;23.24;49.72;98910.54;1677500;82;21098;-38
2021/05/29 00:56:30;;;;;;;8.13;3.62;;;;;;;23.26;49.67;98906.37;1704212;82;21109;-37
2021/05/29 00:58:58;;;;;;;4.92;3.62;;;;;;;23.27;49.63;98900.02;1679979;84;21074;-37
2021/05/29 01:01:24;;;;;;;6.05;4.37;;;;;;;23.29;49.56;98904.23;1691237;82;20995;-37
2021/05/29 01:03:51;;;;;;;3.92;3.52;;;;;;;23.31;49.49;98896.86;1711152;82;21082;-37
2021/05/29 01:06:17;;;;;;;3.83;3.45;;;;;;;23.34;49.36;98896.56;1700684;82;21036;-37
2021/05/29 01:08:44;;;;;;;5.50;3.52;;;;;;;23.37;49.24;98889.56;1690739;82;21804;-36
2021/05/29 01:11:11;;;;;;;4.40;4.05;;;;;;;23.42;49.20;98892.28;1708769;82;21105;-38
2021/05/29 01:13:38;;;;;;;7.03;3.60;;;;;;;23.42;49.30;98887.77;1697125;84;21137;-37
2021/05/29 01:16:15;;;;;;;6.42;4.00;;;;;;;23.42;49.30;98889.12;1658128;85;21038;-37
2021/05/29 01:18:39;;;;;;;6.40;3.90;;;;;;;23.42;49.29;98884.22;1658950;84;21081;-37
2021/05/29 01:21:07;;;;;;;4.47;4.08;;;;;;;23.43;49.25;98892.12;1654658;85;21032;-37
2021/05/29 01:23:33;;;;;;;5.25;4.15;;;;;;;23.45;49.24;98889.30;1680363;83;21114;-38
2021/05/29 01:26:00;;;;;;;4.62;4.22;;;;;;;23.44;49.27;98879.58;1687113;83;21592;-37
2021/05/29 01:28:29;;;;;;;6.37;4.37;;;;;;;23.41;49.35;98876.67;1656730;85;21075;-37
2021/05/29 01:31:02;;;;;;;6.67;4.35;;;;;;;23.34;49.46;98875.09;1710040;82;21070;-37
2021/05/29 01:33:33;;;;;;;6.80;4.60;;;;;;;23.28;49.55;98875.69;1670971;82;21112;-37
2021/05/29 01:36:05;;;;;;;7.30;4.87;;;;;;;23.28;49.58;98868.14;1645589;85;21609;-38
2021/05/29 01:38:34;;;;;;;6.45;4.40;;;;;;;23.25;49.68;98872.45;1670965;84;21108;-38
2021/05/29 01:41:07;;;;;;;8.03;4.85;;;;;;;23.23;49.70;98880.66;1657257;85;21044;-37
2021/05/29 01:43:38;;;;;;;7.08;4.40;;;;;;;23.23;49.69;98884.68;1674854;83;21060;-38
2021/05/29 01:46:05;;;;;;;8.58;4.30;;;;;;;23.24;49.66;98878.33;1656276;85;21023;-37
2021/05/29 01:48:37;;;;;;;5.58;4.65;;;;;;;23.23;49.76;98879.83;1733158;80;21070;-38
2021/05/29 01:51:03;;;;;;;8.43;5.20;;;;;;;23.20;49.82;98879.64;1680421;82;21570;-37
2021/05/29 01:53:29;;;;;;;6.22;4.20;;;;;;;23.18;49.86;98881.61;1725222;81;21045;-37
2021/05/29 01:55:57;;;;;;;5.33;3.95;;;;;;;23.16;49.81;98882.26;1725009;81;21527;-37
2021/05/29 01:58:24;;;;;;;3.85;3.55;;;;;;;23.18;49.71;98882.95;1699533;82;21588;-38
2021/05/29 02:00:50;;;;;;;4.95;3.62;;;;;;;23.23;49.54;98883.34;1726719;81;21140;-37
2021/05/29 02:03:16;;;;;;;3.98;3.62;;;;;;;23.27;49.43;98878.55;1725221;81;21027;-37
2021/05/29 02:05:44;;;;;;;4.40;4.00;;;;;;;23.31;49.36;98874.55;1734840;82;21014;-37
2021/05/29 02:08:12;;;;;;;9.78;4.17;;;;;;;23.34;49.33;98868.38;1736301;81;21490;-37
2021/05/29 02:10:41;;;;;;;5.12;4.55;;;;;;;23.35;49.39;98872.77;1738095;81;21622;-37
2021/05/29 02:13:11;;;;;;;4.22;3.80;;;;;;;23.37;49.34;98874.80;1724887;81;21614;-37
2021/05/29 02:15:40;;;;;;;3.83;3.47;;;;;;;23.39;49.26;98871.96;1752187;81;21046;-37
2021/05/29 02:18:09;;;;;;;4.58;3.77;;;;;;;23.42;49.13;98879.72;1717577;81;21033;-37
2021/05/29 02:20:50;;;;;;;9.20;6.08;;;;;;;23.45;49.13;98882.59;1731818;81;21591;-37
2021/05/29 02:23:25;;;;;;;6.62;5.62;;;;;;;23.45;49.27;98877.22;1737590;81;21090;-37
2021/05/29 02:25:55;;;;;;;5.80;5.30;;;;;;;23.40;49.57;98865.58;1711911;81;21111;-37
2021/05/29 02:28:22;;;;;;;7.67;5.90;;;;;;;23.31;49.67;98862.48;1689709;83;21587;-37
2021/05/29 02:30:49;;;;;;;7.37;6.72;;;;;;;23.29;49.79;98863.13;1689232;83;21061;-37
2021/05/29 02:33:15;;;;;;;6.30;5.75;;;;;;;23.25;49.95;98859.91;1761613;80;21021;-37
2021/05/29 02:35:42;;;;;;;9.08;6.08;;;;;;;23.19;50.07;98860.50;1745467;80;21614;-37
2021/05/29 02:38:08;;;;;;;5.72;5.22;;;;;;;23.17;50.11;98859.80;1701734;82;21491;-37
2021/05/29 02:40:35;;;;;;;10.35;6.55;;;;;;;23.17;50.00;98863.33;1729639;81;20995;-37
2021/05/29 02:43:01;;;;;;;6.17;5.67;;;;;;;23.17;50.19;98858.47;1727527;81;21516;-37
2021/05/29 02:45:28;;;;;;;7.10;6.17;;;;;;;23.16;50.15;98865.65;1746096;81;21101;-37
2021/05/29 02:47:55;;;;;;;6.15;5.62;;;;;;;23.15;50.26;98865.83;1734608;81;21057;-37
2021/05/29 02:50:23;;;;;;;7.28;5.75;;;;;;;23.11;50.37;98865.25;1657925;84;21038;-38
2021/05/29 02:52:49;;;;;;;6.50;5.90;;;;;;;23.10;50.31;98868.08;1693723;83;21030;-37
2021/05/29 02:55:22;;;;;;;6.90;6.28;;;;;;;23.11;50.43;98861.73;1693887;82;21138;-37
2021/05/29 02:57:44;;;;;;;7.45;6.28;;;;;;;23.04;50.53;98860.11;1698886;82;21510;-37
2021/05/29 03:00:13;;;;;;;7.67;6.37;;;;;;;22.97;50.69;98857.19;1698960;84;21577;-37
2021/05/29 03:02:40;;;;;;;10.68;7.22;;;;;;;22.91;50.85;98859.61;1697056;84;21445;-38
2021/05/29 03:05:07;;;;;;;8.83;7.12;;;;;;;22.86;50.98;98857.36;1694347;82;21622;-38
2021/05/29 03:07:34;;;;;;;7.55;6.90;;;;;;;22.80;51.08;98866.86;1699787;82;21048;-37
2021/05/29 03:10:02;;;;;;;7.78;6.90;;;;;;;22.74;51.15;98859.39;1698193;82;21022;-37
2021/05/29 03:12:28;;;;;;;7.85;6.85;;;;;;;22.68;51.33;98855.11;1726455;81;21063;-37
2021/05/29 03:14:57;;;;;;;7.45;6.75;;;;;;;22.61;51.45;98853.03;1692930;82;21063;-38
2021/05/29 03:17:24;;;;;;;8.95;8.05;;;;;;;22.56;51.59;98856.65;1679042;84;21361;-38
2021/05/29 03:19:51;;;;;;;10.43;7.30;;;;;;;22.51;51.75;98852.22;1702401;82;21055;-37
2021/05/29 03:22:17;;;;;;;8.38;7.58;;;;;;;22.45;51.95;98854.13;1692315;84;21021;-37
2021/05/29 03:24:44;;;;;;;10.75;9.23;;;;;;;22.37;52.15;98855.35;1684509;83;21080;-37
2021/05/29 03:27:16;;;;;;;9.25;8.28;;;;;;;22.32;52.32;98853.60;1704060;82;21083;-37
2021/05/29 03:29:39;;;;;;;12.37;10.60;;;;;;;22.30;52.45;98852.91;1698567;83;21079;-37
2021/05/29 03:32:06;;;;;;;12.75;9.95;;;;;;;22.24;52.61;98853.80;1697135;82;21082;-37
2021/05/29 03:34:33;;;;;;;11.65;9.40;;;;;;;22.17;52.78;98858.02;1703376;82;21091;-38
2021/05/29 03:36:59;;;;;;;13.53;9.08;;;;;;;22.13;52.99;98866.02;1696173;82;21070;-38
2021/05/29 03:39:26;;;;;;;13.48;9.48;;;;;;;22.09;53.16;98865.95;1697792;83;20980;-38
2021/05/29 03:41:53;;;;;;;14.78;10.28;;;;;;;22.06;53.27;98864.90;1705478;82;21011;-38
2021/05/29 03:44:19;;;;;;;16.40;11.30;;;;;;;22.04;53.38;98869.53;1665794;84;21108;-38
2021/05/29 03:46:46;;;;;;;13.18;10.30;;;;;;;21.99;53.46;98873.13;1649045;85;21044;-37
2021/05/29 03:49:13;;;;;;;15.95;9.95;;;;;;;21.93;53.63;98873.72;1639488;85;21088;-38
2021/05/29 03:51:39;;;;;;;10.58;8.70;;;;;;;21.85;53.83;98864.53;1674723;84;21616;-38
2021/05/29 03:54:06;;;;;;;12.05;9.58;;;;;;;21.81;53.97;98869.83;1673377;84;21574;-38
2021/05/29 03:56:32;;;;;;;13.65;9.03;;;;;;;21.80;54.08;98870.80;1663317;84;21064;-38
2021/05/29 03:59:02;;;;;;;9.10;7.47;;;;;;;21.79;54.09;98871.81;1646309;85;21035;-38
2021/05/29 04:01:28;;;;;;;9.98;7.55;;;;;;;21.77;54.15;98875.59;1644281;85;21172;-37
2021/05/29 04:03:54;;;;;;;9.20;7.17;;;;;;;21.74;54.18;98880.76;1644427;85;21553;-38
2021/05/29 04:06:21;;;;;;;12.15;7.17;;;;;;;21.74;54.13;98879.42;1678143;84;21537;-38
2021/05/29 04:08:48;;;;;;;8.75;6.70;;;;;;;21.75;54.09;98883.77;1693542;83;21057;-38
2021/05/29 04:11:15;;;;;;;11.48;10.03;;;;;;;21.81;53.94;98883.72;1675664;84;21129;-39
2021/05/29 04:13:42;;;;;;;10.60;8.93;;;;;;;21.83;54.02;98875.88;1664358;84;21612;-38
2021/05/29 04:16:08;;;;;;;9.40;8.28;;;;;;;21.86;53.90;98874.27;1681047;84;21020;-38
2021/05/29 04:18:35;;;;;;;8.55;6.70;;;;;;;21.92;53.78;98875.53;1653069;85;21567;-39
2021/05/29 04:21:03;;;;;;;10.55;6.25;;;;;;;21.98;53.61;98877.65;1676475;83;21075;-37
2021/05/29 04:23:29;;;;;;;6.65;5.55;;;;;;;22.02;53.38;98878.20;1680063;84;21092;-37
2021/05/29 04:25:56;;;;;;;7.20;5.37;;;;;;;21.99;53.31;98883.84;1681741;83;21082;-38
2021/05/29 04:28:23;;;;;;;5.12;4.53;;;;;;;21.95;53.25;98883.78;1677763;83;21075;-38
2021/05/29 04:30:49;;;;;;;4.17;3.55;;;;;;;21.91;53.20;98885.07;1682545;83;21575;-38
2021/05/29 04:33:16;;;;;;;5.28;3.60;;;;;;;21.83;53.12;98896.47;1675655;83;21063;-38
2021/05/29 04:35:42;;;;;;;4.35;3.30;;;;;;;21.75;53.27;98889.63;1665993;85;21010;-38
2021/05/29 04:38:09;;;;;;;3.00;2.50;;;;;;;21.72;53.16;98888.09;1650481;85;21125;-38
2021/05/29 04:40:36;;;;;;;3.08;2.70;;;;;;;21.68;52.95;98896.87;1656874;85;21027;-38
2021/05/29 04:43:02;;;;;;;2.83;2.25;;;;;;;21.58;52.89;98891.16;1680868;82;21054;-37
2021/05/29 04:45:29;;;;;;;2.52;2.02;;;;;;;21.43;53.02;98900.88;1690956;83;21087;-38
2021/05/29 04:47:56;;;;;;;4.72;2.67;;;;;;;21.25;53.42;98891.82;1650487;85;21743;-38
2021/05/29 04:50:23;;;;;;;2.58;2.10;;;;;;;21.09;53.84;98897.20;1680110;83;21039;-38
2021/05/29 04:52:50;;;;;;;3.27;2.47;;;;;;;21.03;54.01;98904.91;1694534;83;21597;-41
2021/05/29 04:55:17;;;;;;;6.35;3.05;;;;;;;20.94;54.43;98901.22;1674795;85;21061;-40
2021/05/29 04:57:43;;;;;;;8.70;2.65;;;;;;;20.92;54.94;98901.86;1694027;84;21089;-40
2021/05/29 05:00:13;;;;;;;10.65;2.75;;;;;;;21.02;55.36;98912.60;1674717;84;21032;-42
2021/05/29 05:02:40;;;;;;;4.72;2.83;;;;;;;21.13;55.58;98913.35;1670165;83;21561;-43
2021/05/29 05:05:07;;;;;;;11.65;2.70;;;;;;;21.25;55.63;98914.09;1676316;84;21862;-43
2021/05/29 05:07:34;;;;;;;7.37;2.62;;;;;;;21.36;55.61;98917.14;1674473;83;21033;-41
2021/05/29 05:10:03;;;;;;;7.15;3.37;;;;;;;21.47;55.35;98915.73;1675829;84;21632;-43
2021/05/29 05:12:30;;;;;;;11.15;2.95;;;;;;;21.57;55.31;98917.09;1673337;83;21063;-41
2021/05/29 05:14:57;;;;;;;6.42;2.58;;;;;;;21.67;55.21;98919.77;1657846;83;21147;-42
2021/05/29 05:17:24;;;;;;;4.35;2.47;;;;;;;21.75;55.10;98920.42;1654635;84;21426;-42
2021/05/29 05:19:50;;;;;;;3.37;2.83;;;;;;;21.82;54.85;98922.41;1701338;83;21542;-43
2021/05/29 05:22:17;;;;;;;5.60;2.67;;;;;;;21.88;54.67;98913.80;1701921;82;21579;-42
2021/05/29 05:24:44;;;;;;;6.97;3.00;;;;;;;21.95;54.55;98910.57;1705183;82;21083;-41
2021/05/29 05:27:11;;;;;;;3.17;2.72;;;;;;;22.02;54.43;98917.05;1673598;84;21075;-40
2021/05/29 05:29:37;;;;;;;4.22;2.70;;;;;;;22.09;54.20;98916.86;1675525;84;21074;-42
2021/05/29 05:32:04;;;;;;;7.78;3.12;;;;;;;22.16;54.09;98914.46;1684512;83;21016;-41
2021/05/29 05:34:30;;;;;;;4.58;2.85;;;;;;;22.21;54.00;98917.05;1678095;84;21166;-41
2021/05/29 05:36:58;;;;;;;11.33;2.77;;;;;;;22.26;53.89;98917.47;1668703;84;21027;-42
2021/05/29 05:39:24;;;;;;;3.00;2.67;;;;;;;22.32;53.78;98923.28;1668473;83;22018;-43
2021/05/29 05:41:51;;;;;;;5.15;2.85;;;;;;;22.36;53.67;98921.99;1650202;84;21585;-42
2021/05/29 05:44:17;;;;;;;4.75;2.60;;;;;;;22.43;53.49;98929.33;1668404;84;21533;-45
2021/05/29 05:46:43;;;;;;;8.38;3.02;;;;;;;22.49;53.38;98929.23;1682515;83;21651;-44
2021/05/29 05:49:10;;;;;;;9.63;2.62;;;;;;;22.53;53.25;98921.28;1672809;84;21517;-43
2021/05/29 05:51:37;;;;;;;3.33;2.40;;;;;;;22.57;53.12;98917.30;1676605;83;21557;-45
2021/05/29 05:54:04;;;;;;;2.65;2.40;;;;;;;22.61;53.04;98925.43;1654505;83;21023;-43
2021/05/29 05:56:31;;;;;;;2.62;2.42;;;;;;;22.66;52.89;98928.16;1693327;82;21473;-42
2021/05/29 05:58:58;;;;;;;2.75;2.37;;;;;;;22.69;52.74;98931.89;1688753;82;21524;-42
2021/05/29 06:01:25;;;;;;;3.35;2.20;;;;;;;22.72;52.35;98939.15;1694529;83;21097;-44
2021/05/29 06:03:52;;;;;;;2.35;2.15;;;;;;;22.78;51.94;98935.06;1673066;82;21081;-41
2021/05/29 06:06:18;;;;;;;2.95;2.02;;;;;;;22.81;51.55;98939.64;1700765;82;21089;-40
2021/05/29 06:08:45;;;;;;;2.12;2.00;;;;;;;22.87;51.25;98942.22;1684161;82;21066;-44
2021/05/29 06:11:11;;;;;;;2.35;1.52;;;;;;;22.92;50.94;98943.97;1698832;82;21062;-42
2021/05/29 06:21:18;;;;;;;3.40;1.95;;;;;;;23.11;50.03;98942.23;1701827;82;21074;-42
2021/05/29 06:23:45;;;;;;;1.85;1.67;;;;;;;23.14;49.90;98944.63;1704377;82;21070;-39
2021/05/29 06:26:12;;;;;;;1.95;1.80;;;;;;;23.19;49.87;98949.06;1681711;83;21006;-43
2021/05/29 06:28:38;;;;;;;1.75;1.65;;;;;;;23.23;49.68;98949.09;1690669;83;21554;-44
2021/05/29 06:31:05;;;;;;;2.87;1.90;;;;;;;23.26;49.53;98952.83;1696323;82;21650;-42
2021/05/29 06:33:31;;;;;;;1.47;1.35;;;;;;;23.29;49.53;98948.52;1707917;82;21073;-41
2021/05/29 06:35:58;;;;;;;1.95;1.70;;;;;;;23.33;49.19;98941.87;1701084;82;21617;-41
2021/05/29 06:38:24;;;;;;;1.77;1.45;;;;;;;23.36;48.82;98944.23;1683927;84;21081;-43
2021/05/29 06:40:51;;;;;;;3.87;1.40;;;;;;;23.41;48.47;98945.14;1685679;83;21087;-43
2021/05/29 06:43:18;;;;;;;1.40;1.30;;;;;;;23.45;48.35;98948.36;1672283;83;21066;-43
2021/05/29 06:45:45;;;;;;;1.72;1.42;;;;;;;23.48;48.34;98953.44;1667041;84;21012;-42
2021/05/29 06:48:13;;;;;;;2.52;1.40;;;;;;;23.55;48.27;98955.86;1672884;84;21051;-43
2021/05/29 06:50:39;;;;;;;2.83;1.15;;;;;;;23.62;48.06;98952.95;1675453;83;21087;-43
2021/05/29 06:53:13;;;;;;;4.53;1.52;;;;;;;23.68;47.78;98954.17;1658485;84;21087;-43
2021/05/29 07:01:03;;;;;;;2.47;1.20;;;;;;;23.87;47.41;98962.15;1662552;84;21925;-43
2021/05/29 07:03:30;;;;;;;2.40;1.20;;;;;;;23.93;47.12;98966.06;1671119;84;21089;-43
2021/05/29 07:05:56;;;;;;;2.77;1.27;;;;;;;23.96;46.93;98959.05;1673437;84;21099;-43
2021/05/29 07:08:23;;;;;;;2.15;1.60;;;;;;;23.99;46.83;98965.94;1668483;84;21020;-43
2021/05/29 07:10:49;;;;;;;1.42;1.05;;;;;;;24.02;46.78;98965.64;1668937;84;21052;-42
2021/05/29 07:13:16;;;;;;;1.55;1.20;;;;;;;24.03;46.68;98974.89;1660475;84;21063;-42
2021/05/29 07:15:42;;;;;;;2.00;1.07;;;;;;;24.05;46.61;98978.27;1671042;84;21553;-43
2021/05/29 07:18:11;;;;;;;1.12;1.00;;;;;;;24.06;46.60;98977.78;1655082;85;21047;-43
2021/05/29 07:20:40;;;;;;;1.40;1.30;;;;;;;24.07;46.52;98980.33;1673041;84;21059;-42
2021/05/29 07:23:08;;;;;;;1.65;1.40;;;;;;;24.07;46.45;98976.30;1673684;84;21006;-43
2021/05/29 07:25:36;;;;;;;1.22;1.05;;;;;;;24.07;46.45;98972.27;1724655;81;21062;-43
2021/05/29 07:28:03;;;;;;;2.52;1.22;;;;;;;24.07;46.41;98980.33;1730260;81;21531;-43
2021/05/29 07:30:30;;;;;;;1.50;1.37;;;;;;;24.08;46.41;98972.59;1731082;81;21124;-43
2021/05/29 07:32:57;;;;;;;0.70;0.70;;;;;;;24.09;46.33;98982.36;1683779;83;21026;-40
2021/05/29 07:35:24;;;;;;;2.75;0.78;;;;;;;24.09;45.08;98979.66;1683235;83;21025;-41
2021/05/29 07:37:50;;;;;;;1.75;0.90;;;;;;;23.94;45.20;98989.26;1668966;85;21065;-40
2021/05/29 07:40:17;;;;;;;1.17;0.90;;;;;;;23.71;45.63;98978.88;1689485;83;21132;-40
2021/05/29 07:42:44;;;;;;;1.65;1.00;;;;;;;23.59;45.62;98994.86;1682232;84;21057;-40
2021/05/29 07:45:12;;;;;;;3.37;0.98;;;;;;;23.47;45.95;98985.30;1687845;83;21002;-40
2021/05/29 07:47:38;;;;;;;1.55;0.90;;;;;;;23.35;45.73;98989.54;1691170;83;21048;-44
2021/05/29 07:50:07;;;;;;;1.27;0.90;;;;;;;23.26;46.37;98979.67;1701262;83;21091;-41
2021/05/29 07:52:33;;;;;;;1.22;0.85;;;;;;;23.23;46.56;98983.98;1696270;82;21613;-41
2021/05/29 07:55:00;;;;;;;1.32;0.90;;;;;;;23.18;46.67;98982.24;1696264;82;21639;-43
2021/05/29 07:57:26;;;;;;;1.25;0.80;;;;;;;23.13;46.80;98981.84;1694656;84;21031;-43
2021/05/29 07:59:53;;;;;;;5.67;0.88;;;;;;;23.09;47.01;98985.82;1713251;82;20991;-43
2021/05/29 08:02:19;;;;;;;1.10;1.00;;;;;;;23.07;46.76;98983.28;1690309;83;21079;-41
2021/05/29 08:04:46;;;;;;;1.02;0.82;;;;;;;23.03;46.84;98984.52;1718330;81;21108;-41
2021/05/29 08:07:13;;;;;;;3.00;0.90;;;;;;;22.98;46.52;98987.66;1743592;81;21843;-44
2021/05/29 08:09:40;;;;;;;8.53;4.50;;;;;;;22.84;46.64;98993.47;1752035;80;21033;-43
2021/05/29 08:12:08;;;;;;;5.58;3.65;;;;;;;22.74;46.81;98995.33;1719838;82;21049;-39
2021/05/29 08:14:35;;;;;;;2.80;2.10;;;;;;;22.67;46.97;99000.41;1751161;80;21597;-42
2021/05/29 08:17:02;;;;;;;1.90;1.80;;;;;;;22.63;46.77;99007.91;1716716;82;21108;-41
2021/05/29 08:19:29;;;;;;;1.67;1.50;;;;;;;22.55;46.62;99006.92;1744905;80;21060;-42
2021/05/29 08:21:55;;;;;;;2.60;1.60;;;;;;;22.48;46.67;99030.77;1742749;80;21018;-42
2021/05/29 08:24:22;;;;;;;3.20;1.15;;;;;;;22.42;46.59;99011.23;1741706;80;21025;-45
2021/05/29 08:26:48;;;;;;;5.30;1.17;;;;;;;22.35;46.68;99012.28;1748675;80;21595;-46
2021/05/29 08:29:15;;;;;;;1.60;1.20;;;;;;;22.35;46.85;99002.90;1663926;82;21020;-44
2021/05/29 08:31:42;;;;;;;2.25;1.17;;;;;;;22.33;47.05;99005.39;1752488;80;21089;-43
2021/05/29 08:34:09;;;;;;;5.70;1.10;;;;;;;22.32;47.09;99005.86;1740451;80;21033;-43
2021/05/29 08:36:38;;;;;;;37.50;33.10;;;;;;;22.33;47.10;99004.05;1737620;80;21014;-47
2021/05/29 08:39:06;;;;;;;6.05;4.80;;;;;;;22.34;46.81;99000.36;1673637;83;21069;-44
2021/05/29 08:41:33;;;;;;;2.60;2.40;;;;;;;22.34;46.86;99003.04;1674001;83;21878;-43
2021/05/29 08:43:59;;;;;;;6.55;1.85;;;;;;;22.26;46.79;99016.63;1699539;82;21788;-42
2021/05/29 08:46:26;;;;;;;3.20;1.50;;;;;;;22.11;47.15;99014.01;1708179;82;21135;-43
2021/05/29 08:48:53;;;;;;;2.70;1.30;;;;;;;21.98;47.38;99014.77;1703703;82;21024;-41
2021/05/29 08:51:20;;;;;;;2.62;1.40;;;;;;;21.82;47.35;99004.56;1702293;82;21078;-42
2021/05/29 08:53:50;;;;;;;1.52;1.12;;;;;;;21.71;47.73;99010.89;1700206;82;21031;-43
2021/05/29 08:56:18;;;;;;;2.08;1.20;;;;;;;21.63;47.72;99014.73;1698113;82;21758;-43
2021/05/29 08:58:44;;;;;;;2.27;1.12;;;;;;;21.55;48.17;99015.91;1699909;83;21569;-46
2021/05/29 09:01:11;;;;;;;2.25;1.05;;;;;;;21.47;47.58;99025.97;1679780;83;22027;-41
2021/05/29 09:03:53;;;;;;;4.10;1.07;;;;;;;21.28;47.74;99014.63;1673698;83;21730;-44
2021/05/29 09:06:37;;;;;;;4.20;1.20;;;;;;;21.12;48.13;99009.28;1702290;83;21138;-44
2021/05/29 09:09:10;;;;;;;2.50;1.20;;;;;;;21.14;48.49;99011.33;1703327;82;21169;-40
2021/05/29 09:11:53;;;;;;;1.25;1.15;;;;;;;21.32;48.59;99016.08;1700714;83;20963;-41
2021/05/29 09:14:30;;;;;;;22.80;15.00;;;;;;;21.51;48.53;99013.49;1696334;82;21059;-42
2021/05/29 09:17:21;;;;;;;5.90;4.47;;;;;;;21.70;48.39;99017.22;1699924;82;21071;-41
2021/05/29 09:20:01;;;;;;;5.97;2.90;;;;;;;21.83;48.07;99019.66;1703475;82;21047;-41
2021/05/29 09:22:38;;;;;;;3.35;1.75;;;;;;;21.88;47.84;99020.93;1706588;82;21102;-42
2021/05/29 09:25:09;;;;;;;1.50;1.40;;;;;;;21.91;47.35;99019.82;1702216;82;21011;-43
2021/05/29 09:27:37;;;;;;;2.30;1.40;;;;;;;21.87;46.97;99025.95;1701886;82;21039;-49
2021/05/29 09:30:07;;;;;;;2.15;1.57;;;;;;;21.83;46.91;99027.69;1681126;82;21056;-47
2021/05/29 09:32:35;;;;;;;15.40;4.90;;;;;;;21.77;47.37;99025.08;1703410;82;21430;-45
2021/05/29 09:35:10;;;;;;;3.05;2.25;;;;;;;21.79;47.67;99017.75;1674381;82;22183;-47
2021/05/29 09:37:37;;;;;;;2.02;1.47;;;;;;;21.87;47.80;99018.38;1660421;84;21061;-49
2021/05/29 09:40:09;;;;;;;2.52;1.80;;;;;;;21.96;47.47;99017.58;1723843;82;21000;-45
2021/05/29 09:42:39;;;;;;;2.40;1.30;;;;;;;21.98;47.33;99014.77;1700660;82;21041;-48
2021/05/29 09:45:28;;;;;;;3.70;1.20;;;;;;;22.02;47.51;99021.05;1704749;82;21034;-47
2021/05/29 09:48:16;;;;;;;19.55;9.98;;;;;;;22.07;47.52;99021.95;1688759;83;21657;-41
2021/05/29 09:51:12;;;;;;;10.98;6.28;;;;;;;22.15;47.25;99030.14;1677428;83;20959;-42
2021/05/29 09:53:48;;;;;;;10.72;5.30;;;;;;;22.20;46.83;99027.05;1629810;85;21113;-44
2021/05/29 09:56:38;;;;;;;5.62;3.92;;;;;;;22.26;46.78;99019.30;1682503;83;21096;-43
2021/05/29 09:59:13;;;;;;;2.95;2.60;;;;;;;22.35;46.86;99030.20;1668056;83;21078;-42
2021/05/29 10:01:52;;;;;;;3.00;1.80;;;;;;;22.43;46.49;99037.89;1688582;83;21110;-41
2021/05/29 10:04:40;;;;;;;3.00;1.57;;;;;;;22.46;45.99;99035.44;1651535;84;21060;-43
2021/05/29 10:07:11;;;;;;;6.15;1.87;;;;;;;22.47;45.77;99034.43;1637048;86;21065;-40
2021/05/29 10:09:38;;;;;;;1.70;1.60;;;;;;;22.49;45.87;99041.83;1647005;85;21710;-41
2021/05/29 10:12:06;;;;;;;2.50;1.50;;;;;;;22.52;45.81;99042.90;1642876;85;21034;-41
2021/05/29 10:14:35;;;;;;;3.72;1.37;;;;;;;22.56;45.45;99049.69;1648457;85;21551;-41
2021/05/29 10:17:04;;;;;;;2.17;1.20;;;;;;;22.59;45.46;99046.73;1637401;86;21069;-41
2021/05/29 10:19:31;;;;;;;1.10;1.00;;;;;;;22.63;45.37;99037.40;1634638;85;21076;-40
2021/05/29 10:22:15;;;;;;;4.97;1.20;;;;;;;22.71;45.28;99042.53;1688435;83;22025;-41
2021/05/29 10:24:44;;;;;;;1.80;1.25;;;;;;;22.79;44.90;99041.33;1691680;83;21070;-41
2021/05/29 10:27:19;;;;;;;1.92;1.10;;;;;;;22.82;44.54;99038.38;1637975;86;21658;-41
2021/05/29 10:29:44;;;;;;;2.47;1.02;;;;;;;22.86;44.37;99037.58;1692132;83;21058;-41
2021/05/29 10:32:18;;;;;;;1.10;0.95;;;;;;;22.87;44.22;99034.77;1691202;83;21595;-41
2021/05/29 10:35:06;;;;;;;1.40;1.22;;;;;;;22.85;44.26;99038.09;1684091;83;21564;-42
2021/05/29 10:37:43;;;;;;;4.50;1.15;;;;;;;22.81;43.89;99042.90;1692350;83;21087;-41
2021/05/29 10:40:33;;;;;;;3.10;1.05;;;;;;;22.77;43.71;99046.84;1639637;86;21042;-41
2021/05/29 10:43:10;;;;;;;3.30;1.40;;;;;;;22.75;43.73;99041.28;1649504;85;21597;-40
2021/05/29 10:45:54;;;;;;;2.72;1.20;;;;;;;22.72;43.85;99038.38;1699275;83;21090;-40
2021/05/29 10:48:24;;;;;;;2.20;0.88;;;;;;;22.73;43.89;99042.76;1650966;85;21073;-39
2021/05/29 10:51:00;;;;;;;1.60;1.10;;;;;;;22.75;43.86;99043.45;1646053;85;21026;-40
2021/05/29 10:53:56;;;;;;;3.65;1.20;;;;;;;22.77;43.74;99029.91;1603602;86;21091;-39
2021/05/29 10:56:28;;;;;;;1.55;1.00;;;;;;;22.77;43.80;99043.31;1598916;86;21652;-39
2021/05/29 10:59:14;;;;;;;2.12;1.05;;;;;;;22.77;43.74;99042.81;1605418;86;21016;-41
2021/05/29 11:01:51;;;;;;;1.95;1.02;;;;;;;22.79;43.80;99037.31;1627651;85;21073;-44
2021/05/29 11:04:24;;;;;;;3.85;1.22;;;;;;;22.82;43.99;99032.50;1636712;85;22290;-45
2021/05/29 11:06:55;;;;;;;3.98;1.17;;;;;;;22.87;43.94;99036.10;1604745;87;21434;-42
2021/05/29 11:09:35;;;;;;;2.25;1.17;;;;;;;22.91;44.00;99033.47;1650090;85;21038;-40
2021/05/29 11:12:05;;;;;;;1.55;1.02;;;;;;;22.95;43.91;99021.48;1648137;84;21038;-40
2021/05/29 11:14:52;;;;;;;1.82;1.10;;;;;;;22.96;43.69;99028.55;1675466;83;21745;-40
2021/05/29 11:17:21;;;;;;;2.27;0.90;;;;;;;23.00;43.60;99021.89;1675086;83;21101;-41
2021/05/29 11:20:16;;;;;;;1.77;0.88;;;;;;;23.03;43.39;99026.10;1676032;83;21124;-41
2021/05/29 11:22:49;;;;;;;2.67;1.20;;;;;;;23.06;43.15;99027.66;1658726;83;21080;-39
2021/05/29 11:25:18;;;;;;;3.05;1.20;;;;;;;23.08;43.13;99028.39;1672119;83;21040;-41
2021/05/29 11:27:47;;;;;;;1.12;1.05;;;;;;;23.07;43.15;99028.89;1675406;83;21712;-41
2021/05/29 11:30:26;;;;;;;3.62;1.35;;;;;;;23.07;43.28;99036.11;1663992;83;21066;-41
2021/05/29 11:33:02;;;;;;;1.82;1.52;;;;;;;23.06;43.27;99035.24;1673726;83;21075;-41
2021/05/29 11:35:38;;;;;;;3.05;1.20;;;;;;;23.05;43.35;99027.30;1644428;85;21111;-42
2021/05/29 11:38:22;;;;;;;1.25;1.07;;;;;;;23.02;43.46;99027.62;1647772;85;21976;-42
2021/05/29 11:41:13;;;;;;;1.65;1.20;;;;;;;22.96;43.53;99029.89;1620136;86;21659;-43
2021/05/29 11:43:53;;;;;;;1.92;1.00;;;;;;;22.87;43.62;99037.44;1643749;85;21453;-41
2021/05/29 11:46:26;;;;;;;3.58;0.90;;;;;;;22.77;43.48;99033.93;1651968;85;21851;-42
2021/05/29 11:49:04;;;;;;;3.50;0.90;;;;;;;22.68;43.55;99034.30;1650130;85;21153;-42
2021/05/29 11:51:36;;;;;;;2.45;1.12;;;;;;;22.66;43.65;99040.78;1673421;82;22042;-43
2021/05/29 11:54:17;;;;;;;1.52;0.88;;;;;;;22.65;43.69;99036.42;1706851;82;21099;-43
2021/05/29 11:56:48;;;;;;;1.05;0.90;;;;;;;22.68;43.65;99034.77;1701203;82;21674;-43
2021/05/29 11:59:17;;;;;;;3.98;1.10;;;;;;;22.69;43.57;99026.59;1691824;83;22049;-44